Terminal Aerodrome Forecast
Issued by NWS

Home | Current Version | Previous Version | Graphics & Text | Print | Product List | Glossary On
Versions: 1 2 3 4 5 6 7 8 9 10 11 12 13 14 15 16
947
FTUS43 KTOP 291350 AAA
TAFMHK
TAF AMD
KMHK 291350Z 2914/3012 36004KT P6SM SCT100
      TEMPO 2914/2915 BKN005
     FM291600 04005KT P6SM SCT040 BKN080=

USA.gov is the U.S. government's official web portal to all federal, state and local government web resources and services.